Time;durP1;ratioP1;P1;durP2;ratioP2;P2;SDS_P1;SDS_P2;PMS_P1;PMS_P2;Temp;Humidity;BMP_temperature;BMP_pressure;BME280_temperature;BME280_humidity;BME280_pressure;Samples;Min_cycle;Max_cycle;Signal;HPM_P1;HPM_P2
2024/04/07 00:00:37;;;;;;;1999.90;999.90;;;22.60;44.40;;;;;;6126263;23;20182;-72
2024/04/07 00:03:03;;;;;;;1999.90;999.90;;;22.50;44.60;;;;;;6125936;23;20171;-72
2024/04/07 00:05:29;;;;;;;1999.90;999.90;;;22.40;44.50;;;;;;6099809;23;20194;-72
2024/04/07 00:07:55;;;;;;;1999.90;999.90;;;22.40;44.70;;;;;;6124765;23;20179;-72
2024/04/07 00:10:21;;;;;;;1999.90;999.90;;;22.30;44.70;;;;;;6099975;23;20400;-73
2024/04/07 00:12:47;;;;;;;1999.90;999.90;;;22.30;44.80;;;;;;6099803;23;20151;-72
2024/04/07 00:15:12;;;;;;;1999.90;999.90;;;22.30;45.00;;;;;;6099018;23;20191;-72
2024/04/07 00:17:38;;;;;;;1999.90;999.90;;;22.30;45.20;;;;;;6098628;23;20600;-73
2024/04/07 00:20:04;;;;;;;1999.90;999.90;;;22.20;45.10;;;;;;6125843;23;20215;-72
2024/04/07 00:22:30;;;;;;;1999.90;999.90;;;22.20;45.20;;;;;;6125765;23;20165;-72
2024/04/07 00:24:56;;;;;;;1999.90;999.90;;;22.10;45.20;;;;;;6125535;23;20183;-73
2024/04/07 00:27:22;;;;;;;1999.90;999.90;;;22.10;45.50;;;;;;6098727;23;20211;-72
2024/04/07 00:29:48;;;;;;;1999.90;999.90;;;22.10;45.70;;;;;;6099945;23;20230;-72
2024/04/07 00:32:14;;;;;;;1999.90;999.90;;;22.10;45.70;;;;;;6125860;23;20154;-72
2024/04/07 00:34:40;;;;;;;1999.90;999.90;;;22.00;45.70;;;;;;6125561;23;20155;-72
2024/04/07 00:37:06;;;;;;;1999.90;999.90;;;22.00;45.80;;;;;;6124375;23;20175;-72
2024/04/07 00:39:32;;;;;;;1999.90;999.90;;;21.90;45.80;;;;;;6125626;23;20492;-73
2024/04/07 00:41:57;;;;;;;1999.90;999.90;;;21.90;46.00;;;;;;6125770;23;20611;-72
2024/04/07 00:44:23;;;;;;;1999.90;999.90;;;21.80;46.20;;;;;;6125226;23;20194;-72
2024/04/07 00:46:49;;;;;;;1999.90;999.90;;;21.80;46.30;;;;;;6124547;23;20194;-71
2024/04/07 00:49:16;;;;;;;1999.90;999.90;;;21.80;46.90;;;;;;6099762;23;20870;-72
2024/04/07 00:51:42;;;;;;;1999.90;999.90;;;21.80;46.30;;;;;;6125588;23;20222;-72
2024/04/07 00:54:09;;;;;;;1999.90;999.90;;;21.70;46.20;;;;;;6125475;23;20155;-71
2024/04/07 00:56:35;;;;;;;1999.90;999.90;;;21.70;46.20;;;;;;6124309;23;20325;-72
2024/04/07 00:59:05;;;;;;;1999.90;999.90;;;21.80;46.10;;;;;;6125337;23;20729;-71
2024/04/07 01:01:31;;;;;;;1999.90;999.90;;;21.80;46.20;;;;;;6125398;23;20151;-72
2024/04/07 01:03:56;;;;;;;1999.90;999.90;;;21.80;46.10;;;;;;6125120;23;20143;-71
2024/04/07 01:06:22;;;;;;;1999.90;999.90;;;21.80;46.10;;;;;;6098348;23;20202;-71
2024/04/07 01:08:48;;;;;;;1999.90;999.90;;;21.80;46.30;;;;;;6099538;23;20242;-72
2024/04/07 01:11:14;;;;;;;1999.90;999.90;;;21.80;46.30;;;;;;6125289;23;20206;-71
2024/04/07 01:13:40;;;;;;;1999.90;999.90;;;21.80;46.40;;;;;;6125318;23;20147;-72
2024/04/07 01:16:05;;;;;;;1999.90;999.90;;;21.70;46.40;;;;;;6123395;23;20213;-72
2024/04/07 01:18:31;;;;;;;1999.90;999.90;;;21.70;46.50;;;;;;6125316;23;20163;-71
2024/04/07 01:20:57;;;;;;;1999.90;999.90;;;21.70;46.40;;;;;;6125186;23;20158;-71
2024/04/07 01:23:23;;;;;;;1999.90;999.90;;;21.70;46.40;;;;;;6125160;23;20159;-71
2024/04/07 01:25:48;;;;;;;1999.90;999.90;;;21.70;46.70;;;;;;6099289;23;20206;-72
2024/04/07 01:28:14;;;;;;;1999.90;999.90;;;21.70;47.10;;;;;;6124258;23;20554;-71
2024/04/07 01:30:40;;;;;;;1999.90;999.90;;;21.60;47.40;;;;;;6125434;23;20151;-72
2024/04/07 01:33:08;;;;;;;1999.90;999.90;;;21.60;47.40;;;;;;6124986;23;20154;-72
2024/04/07 01:35:34;;;;;;;1999.90;999.90;;;21.50;47.50;;;;;;6125054;23;20218;-71
2024/04/07 01:38:01;;;;;;;1999.90;999.90;;;21.50;47.80;;;;;;6124186;23;20155;-71
2024/04/07 01:40:27;;;;;;;1999.90;999.90;;;21.40;47.90;;;;;;6125106;23;20155;-72
2024/04/07 01:42:52;;;;;;;1999.90;999.90;;;21.30;48.20;;;;;;6099020;23;20623;-71
2024/04/07 01:45:19;;;;;;;1999.90;999.90;;;21.20;48.40;;;;;;6099053;23;20202;-72
2024/04/07 01:47:44;;;;;;;1999.90;999.90;;;21.20;48.50;;;;;;6123792;23;20483;-71
2024/04/07 01:50:10;;;;;;;1999.90;999.90;;;21.10;48.50;;;;;;6124828;23;20209;-72
2024/04/07 01:52:36;;;;;;;1999.90;999.90;;;21.00;48.50;;;;;;6099310;23;20241;-72
2024/04/07 01:55:02;;;;;;;1999.90;999.90;;;21.00;48.70;;;;;;6124805;23;20166;-71
2024/04/07 01:57:27;;;;;;;1999.90;999.90;;;20.90;49.00;;;;;;6098040;23;20181;-71
2024/04/07 01:59:54;;;;;;;1999.90;999.90;;;20.90;49.10;;;;;;6099176;23;20172;-71
2024/04/07 02:02:19;;;;;;;1999.90;999.90;;;20.80;49.10;;;;;;6124744;23;20151;-71
2024/04/07 02:04:46;;;;;;;1999.90;999.90;;;20.80;49.20;;;;;;6125028;23;20563;-71
2024/04/07 02:07:11;;;;;;;1999.90;999.90;;;20.80;49.50;;;;;;6097911;23;20166;-71
2024/04/07 02:09:37;;;;;;;1999.90;999.90;;;20.70;49.80;;;;;;6099159;23;20168;-71
2024/04/07 02:12:03;;;;;;;1999.90;999.90;;;20.70;50.00;;;;;;6124836;23;20153;-71
2024/04/07 02:14:29;;;;;;;1999.90;999.90;;;20.70;50.10;;;;;;6098807;23;20481;-71
2024/04/07 02:16:54;;;;;;;1999.90;999.90;;;20.60;50.20;;;;;;6123054;23;20264;-71
2024/04/07 02:19:21;;;;;;;1999.90;999.90;;;20.60;50.40;;;;;;6124710;23;20165;-71
2024/04/07 02:21:46;;;;;;;1999.90;999.90;;;20.60;50.60;;;;;;6125014;23;20591;-72
2024/04/07 02:24:12;;;;;;;1999.90;999.90;;;20.60;50.70;;;;;;6124728;23;20162;-71
2024/04/07 02:26:38;;;;;;;1999.90;999.90;;;20.60;50.80;;;;;;6123652;23;20198;-71
2024/04/07 02:29:04;;;;;;;1999.90;999.90;;;20.60;50.90;;;;;;6125210;23;20221;-72
2024/04/07 02:31:30;;;;;;;1999.90;999.90;;;20.50;50.90;;;;;;6124740;23;20586;-70
2024/04/07 02:33:56;;;;;;;1999.90;999.90;;;20.50;51.20;;;;;;6123293;23;20165;-72
2024/04/07 02:36:21;;;;;;;1999.90;999.90;;;20.50;51.10;;;;;;6123766;23;20514;-71
2024/04/07 02:38:47;;;;;;;1999.90;999.90;;;20.50;51.20;;;;;;6124783;23;20205;-71
2024/04/07 02:41:15;;;;;;;1999.90;999.90;;;20.50;51.30;;;;;;6125056;23;20607;-71
2024/04/07 02:43:41;;;;;;;1999.90;999.90;;;20.50;51.30;;;;;;6124704;23;20165;-71
2024/04/07 02:48:51;;;;;;;1999.90;999.90;;;20.50;51.40;;;;;;6124893;23;20177;-71
2024/04/07 02:51:17;;;;;;;1999.90;999.90;;;20.50;51.50;;;;;;6124763;23;20154;-71
2024/04/07 02:53:42;;;;;;;1999.90;999.90;;;20.50;51.60;;;;;;6124929;23;20233;-71
2024/04/07 02:56:08;;;;;;;1999.90;999.90;;;20.50;51.70;;;;;;6123710;23;20590;-71
2024/04/07 02:58:34;;;;;;;1999.90;999.90;;;20.50;51.80;;;;;;6099054;23;20492;-71
2024/04/07 03:01:03;;;;;;;1999.90;999.90;;;20.50;51.90;;;;;;6124974;23;20165;-70
2024/04/07 03:03:29;;;;;;;1999.90;999.90;;;20.40;52.00;;;;;;6125827;23;20153;-71
2024/04/07 03:05:55;;;;;;;1999.90;999.90;;;20.40;52.10;;;;;;6100254;23;20201;-71
2024/04/07 03:08:21;;;;;;;1999.90;999.90;;;20.40;52.10;;;;;;6125976;23;20154;-74
2024/04/07 03:11:00;;;;;;;1999.90;999.90;;;20.40;52.20;;;;;;6100906;23;20604;-71
2024/04/07 03:13:26;;;;;;;1999.90;999.90;;;20.40;52.60;;;;;;6126236;23;20188;-71
2024/04/07 03:15:52;;;;;;;1999.90;999.90;;;20.40;52.60;;;;;;6126425;23;20274;-71
2024/04/07 03:18:19;;;;;;;1999.90;999.90;;;20.30;52.50;;;;;;6125993;23;20156;-71
2024/04/07 03:20:45;;;;;;;1999.90;999.90;;;20.30;52.60;;;;;;6126941;23;20172;-71
2024/04/07 03:23:10;;;;;;;1999.90;999.90;;;20.30;52.90;;;;;;6126902;23;20160;-71
2024/04/07 03:51:30;;;;;;;1999.90;999.90;;;20.10;54.70;;;;;;6146280;23;20206;-71
2024/04/07 03:53:56;;;;;;;1999.90;999.90;;;20.10;54.80;;;;;;6155526;23;20177;-70
2024/04/07 03:56:22;;;;;;;1999.90;999.90;;;20.10;55.00;;;;;;6154725;23;20514;-70
2024/04/07 03:58:48;;;;;;;1999.90;999.90;;;20.10;55.30;;;;;;6155838;23;20168;-70
2024/04/07 04:01:15;;;;;;;1999.90;999.90;;;20.00;55.40;;;;;;6156010;23;20655;-71
2024/04/07 04:03:42;;;;;;;1999.90;999.90;;;20.00;55.50;;;;;;6129747;23;20162;-71
2024/04/07 04:06:07;;;;;;;1999.90;999.90;;;20.00;56.30;;;;;;6154807;23;20189;-71
2024/04/07 04:08:33;;;;;;;1999.90;999.90;;;19.90;55.70;;;;;;6155555;23;20174;-71
2024/04/07 04:11:03;;;;;;;1999.90;999.90;;;19.90;55.90;;;;;;6155877;23;20271;-71
2024/04/07 04:13:28;;;;;;;1999.90;999.90;;;19.90;56.10;;;;;;6155200;23;20151;-70
2024/04/07 04:15:54;;;;;;;1999.90;999.90;;;19.90;56.20;;;;;;6155041;23;20250;-70
2024/04/07 04:18:20;;;;;;;1999.90;999.90;;;19.80;56.30;;;;;;6154793;23;20190;-71
2024/04/07 04:20:46;;;;;;;1999.90;999.90;;;19.70;56.40;;;;;;6155576;23;20160;-70
2024/04/07 04:23:11;;;;;;;1999.90;999.90;;;19.70;56.50;;;;;;6155523;23;20156;-70
2024/04/07 04:25:40;;;;;;;1999.90;999.90;;;19.70;56.70;;;;;;6129449;23;20196;-71
2024/04/07 04:28:06;;;;;;;1999.90;999.90;;;19.70;56.80;;;;;;6128634;23;20156;-71
2024/04/07 04:30:33;;;;;;;1999.90;999.90;;;19.60;57.00;;;;;;6129641;23;20191;-72
2024/04/07 04:32:58;;;;;;;1999.90;999.90;;;19.60;57.00;;;;;;6155340;23;20151;-71
2024/04/07 04:35:24;;;;;;;1999.90;999.90;;;19.50;57.20;;;;;;6129212;23;20494;-71
2024/04/07 04:37:50;;;;;;;1999.90;999.90;;;19.50;57.30;;;;;;6154501;23;20157;-71
2024/04/07 04:40:16;;;;;;;1999.90;999.90;;;19.50;57.30;;;;;;6129356;23;20469;-71
2024/04/07 04:42:41;;;;;;;1999.90;999.90;;;19.40;57.40;;;;;;6155489;23;20205;-70
2024/04/07 04:45:08;;;;;;;1999.90;999.90;;;19.40;57.60;;;;;;6155226;23;20288;-71
2024/04/07 04:47:34;;;;;;;1999.90;999.90;;;19.40;57.80;;;;;;6154706;23;20651;-70
2024/04/07 04:50:00;;;;;;;1999.90;999.90;;;19.30;57.80;;;;;;6129130;23;20222;-70
2024/04/07 04:52:30;;;;;;;1999.90;999.90;;;19.20;58.00;;;;;;6124371;23;20226;-70
2024/04/07 04:54:59;;;;;;;1999.90;999.90;;;19.20;58.10;;;;;;6125243;23;20167;-71
2024/04/07 04:57:33;;;;;;;1999.90;999.90;;;19.10;58.10;;;;;;6154347;23;20263;-70
2024/04/07 05:00:01;;;;;;;1999.90;999.90;;;19.00;58.20;;;;;;6128565;23;20158;-72
2024/04/07 05:02:27;;;;;;;1999.90;999.90;;;19.00;58.50;;;;;;6155308;23;20159;-70
2024/04/07 05:04:52;;;;;;;1999.90;999.90;;;19.00;58.50;;;;;;6154681;23;20634;-70
2024/04/07 05:07:18;;;;;;;1999.90;999.90;;;18.90;58.70;;;;;;6154445;23;20201;-73
2024/04/07 05:09:47;;;;;;;1999.90;999.90;;;18.90;58.90;;;;;;6129084;23;20184;-70
2024/04/07 05:12:13;;;;;;;1999.90;999.90;;;18.90;59.30;;;;;;6155057;23;20151;-70
2024/04/07 05:14:39;;;;;;;1999.90;999.90;;;18.80;59.30;;;;;;6154931;23;20485;-70
2024/04/07 05:17:04;;;;;;;1999.90;999.90;;;18.80;59.40;;;;;;6153523;23;20170;-70
2024/04/07 05:19:30;;;;;;;1999.90;999.90;;;18.80;59.50;;;;;;6155127;23;20189;-71
2024/04/07 05:21:56;;;;;;;1999.90;999.90;;;18.80;59.60;;;;;;6155066;23;20155;-70
2024/04/07 05:24:21;;;;;;;1999.90;999.90;;;18.70;59.70;;;;;;6154778;23;20195;-70
2024/04/07 05:26:48;;;;;;;1999.90;999.90;;;18.60;60.10;;;;;;6127458;23;20170;-71
2024/04/07 05:29:14;;;;;;;1999.90;999.90;;;18.50;60.30;;;;;;6155123;23;20146;-70
2024/04/07 05:31:39;;;;;;;1999.90;999.90;;;18.50;60.60;;;;;;6154578;23;20157;-70
2024/04/07 05:34:05;;;;;;;1999.90;999.90;;;18.50;60.80;;;;;;6128247;23;20228;-70
2024/04/07 05:36:31;;;;;;;1999.90;999.90;;;18.50;60.80;;;;;;6153357;23;20170;-70
2024/04/07 05:38:56;;;;;;;1999.90;999.90;;;18.50;61.20;;;;;;6128501;23;20575;-70
2024/04/07 05:41:22;;;;;;;1999.90;999.90;;;18.40;61.50;;;;;;6154476;23;20499;-70
2024/04/07 05:43:47;;;;;;;1999.90;999.90;;;18.40;61.80;;;;;;6154488;23;20158;-70
2024/04/07 05:46:15;;;;;;;1999.90;999.90;;;18.40;62.00;;;;;;6127175;23;20537;-70
2024/04/07 05:48:41;;;;;;;1999.90;999.90;;;18.50;62.00;;;;;;6154336;23;20174;-71
2024/04/07 05:51:12;;;;;;;1999.90;999.90;;;18.60;62.10;;;;;;6128312;23;20163;-70
2024/04/07 05:53:38;;;;;;;1999.90;999.90;;;18.70;63.00;;;;;;6154182;23;20139;-70
2024/04/07 05:56:04;;;;;;;1999.90;999.90;;;18.80;62.10;;;;;;6153350;23;20277;-70
2024/04/07 05:58:31;;;;;;;1999.90;999.90;;;18.90;62.20;;;;;;6154308;23;20202;-70
2024/04/07 06:00:59;;;;;;;1999.90;999.90;;;19.00;62.40;;;;;;6154369;23;20225;-70
2024/04/07 06:03:25;;;;;;;1999.90;999.90;;;19.20;62.40;;;;;;6153946;23;20161;-70
2024/04/07 06:05:51;;;;;;;1999.90;999.90;;;19.30;62.40;;;;;;6154038;23;20257;-70
2024/04/07 06:08:16;;;;;;;1999.90;999.90;;;19.40;62.50;;;;;;6153250;23;20150;-71
2024/04/07 06:10:42;;;;;;;1999.90;999.90;;;19.50;62.30;;;;;;6154325;23;20151;-70
2024/04/07 06:13:07;;;;;;;1999.90;999.90;;;19.60;62.50;;;;;;6154133;23;20150;-70
2024/04/07 06:15:33;;;;;;;1999.90;999.90;;;19.60;62.80;;;;;;6153876;23;20174;-70
2024/04/07 06:17:59;;;;;;;1999.90;999.90;;;19.60;63.10;;;;;;6153105;23;20154;-69
2024/04/07 06:20:24;;;;;;;1999.90;999.90;;;19.60;63.80;;;;;;6154145;23;20169;-70
2024/04/07 06:22:50;;;;;;;1999.90;999.90;;;19.60;64.30;;;;;;6153747;23;20209;-70
2024/04/07 06:25:22;;;;;;;1999.90;999.90;;;19.60;64.40;;;;;;6127289;23;20209;-70
2024/04/07 06:27:47;;;;;;;1999.90;999.90;;;19.70;64.30;;;;;;6153352;23;20143;-70
2024/04/07 06:30:13;;;;;;;1999.90;999.90;;;19.80;64.20;;;;;;6154282;23;20201;-70
2024/04/07 06:32:39;;;;;;;1999.90;999.90;;;19.90;64.20;;;;;;6153942;23;20151;-70
2024/04/07 06:35:05;;;;;;;1999.90;999.90;;;20.10;64.10;;;;;;6127985;23;20186;-70
2024/04/07 06:37:30;;;;;;;1999.90;999.90;;;20.10;63.30;;;;;;6127965;23;20594;-70
2024/04/07 06:39:56;;;;;;;1999.90;999.90;;;20.10;63.00;;;;;;6156149;23;20590;-70
2024/04/07 06:42:28;;;;;;;1999.90;999.90;;;20.10;63.30;;;;;;6155730;23;20161;-70
2024/04/07 06:47:29;;;;;;;1999.90;999.90;;;20.30;63.50;;;;;;6156121;23;20194;-70
2024/04/07 06:49:57;;;;;;;1999.90;999.90;;;20.40;63.40;;;;;;6154568;23;20497;-70
2024/04/07 06:52:23;;;;;;;1999.90;999.90;;;20.60;63.60;;;;;;6155917;23;20619;-70
2024/04/07 06:54:49;;;;;;;1999.90;999.90;;;20.70;63.50;;;;;;6129678;23;20163;-70
2024/04/07 06:57:17;;;;;;;1999.90;999.90;;;20.80;63.00;;;;;;6154944;23;20150;-70
2024/04/07 06:59:43;;;;;;;1999.90;999.90;;;20.80;62.80;;;;;;6155877;23;20652;-70
2024/04/07 07:02:09;;;;;;;1999.90;999.90;;;20.80;62.40;;;;;;6129571;23;20230;-70
2024/04/07 07:04:34;;;;;;;1999.90;999.90;;;20.90;62.40;;;;;;6155568;23;20176;-70
2024/04/07 07:07:00;;;;;;;1999.90;999.90;;;21.00;62.30;;;;;;6154661;23;20226;-70
2024/04/07 07:09:27;;;;;;;1999.90;999.90;;;21.00;62.20;;;;;;6155958;23;20562;-70
2024/04/07 07:11:53;;;;;;;1999.90;999.90;;;21.20;62.10;;;;;;6155716;23;20154;-70
2024/04/07 07:14:18;;;;;;;1999.90;999.90;;;21.30;62.00;;;;;;6155528;23;20483;-70
2024/04/07 07:17:15;;;;;;;1999.90;999.90;;;21.40;61.80;;;;;;6124418;23;20550;-71
2024/04/07 07:19:41;;;;;;;1999.90;999.90;;;21.60;61.50;;;;;;6125835;23;20235;-70
2024/04/07 07:22:07;;;;;;;1999.90;999.90;;;21.80;60.70;;;;;;6124331;23;20529;-70
2024/04/07 07:24:32;;;;;;;1999.90;999.90;;;21.90;60.30;;;;;;6125631;23;20259;-71
2024/04/07 07:26:58;;;;;;;1999.90;999.90;;;22.00;60.10;;;;;;6124951;23;20229;-71
2024/04/07 07:29:24;;;;;;;1999.90;999.90;;;22.10;59.90;;;;;;6124772;23;20169;-71
2024/04/07 07:31:50;;;;;;;1999.90;999.90;;;22.30;59.90;;;;;;6126306;23;20151;-71
2024/04/07 07:34:15;;;;;;;1999.90;999.90;;;22.40;59.70;;;;;;6126078;23;20155;-71
2024/04/07 07:36:41;;;;;;;1999.90;999.90;;;22.70;59.40;;;;;;6123598;23;20265;-71
2024/04/07 07:39:07;;;;;;;1999.90;999.90;;;23.00;58.70;;;;;;6126011;23;20234;-71
2024/04/07 07:41:33;;;;;;;1999.90;999.90;;;23.20;58.20;;;;;;6126264;23;20161;-71
2024/04/07 07:43:58;;;;;;;1999.90;999.90;;;23.40;58.00;;;;;;6126090;23;20151;-71
2024/04/07 07:46:24;;;;;;;1999.90;999.90;;;23.50;57.90;;;;;;6123319;23;20194;-71
2024/04/07 07:48:49;;;;;;;1999.90;999.90;;;23.60;57.60;;;;;;6124161;23;20166;-72
2024/04/07 07:51:17;;;;;;;1999.90;999.90;;;23.60;57.60;;;;;;6126139;23;20151;-71
2024/04/07 07:53:43;;;;;;;1999.90;999.90;;;23.60;57.70;;;;;;6125603;23;20763;-71
2024/04/07 07:56:09;;;;;;;1999.90;999.90;;;23.60;57.60;;;;;;6125269;23;20182;-71
2024/04/07 07:58:36;;;;;;;1999.90;999.90;;;23.70;57.70;;;;;;6126102;23;20623;-71
2024/04/07 08:01:03;;;;;;;1999.90;999.90;;;23.70;57.60;;;;;;6126061;23;20298;-71
2024/04/07 08:03:28;;;;;;;1999.90;999.90;;;23.60;57.70;;;;;;6125855;23;20186;-71
2024/04/07 08:05:54;;;;;;;1999.90;999.90;;;23.60;57.80;;;;;;6125965;23;20584;-71
2024/04/07 08:08:20;;;;;;;1999.90;999.90;;;23.60;57.70;;;;;;6124997;23;20162;-71
2024/04/07 08:10:47;;;;;;;1999.90;999.90;;;23.80;57.60;;;;;;6125914;23;20151;-72
2024/04/07 08:13:13;;;;;;;1999.90;999.90;;;23.90;57.40;;;;;;6125878;23;20179;-72
2024/04/07 08:18:45;;;;;;;1999.90;999.90;;;24.10;57.10;;;;;;6153380;23;20197;-71
2024/04/07 08:21:10;;;;;;;1999.90;999.90;;;24.20;57.10;;;;;;6155607;23;20155;-72
2024/04/07 08:23:36;;;;;;;1999.90;999.90;;;24.20;56.90;;;;;;6155204;23;20302;-72
2024/04/07 08:27:26;;;;;;;1999.90;999.90;;;24.20;56.70;;;;;;6160658;23;20846;-71
2024/04/07 08:33:56;;;;;;;1999.90;999.90;;;24.20;56.70;;;;;;6036755;23;20164;-72
2024/04/07 08:39:04;;;;;;;1999.90;999.90;;;24.00;56.90;;;;;;6179822;23;20224;-71
2024/04/07 08:41:29;;;;;;;1999.90;999.90;;;24.00;57.10;;;;;;6154909;23;20177;-71
2024/04/07 08:43:56;;;;;;;1999.90;999.90;;;24.00;57.20;;;;;;6128563;23;20158;-72
2024/04/07 08:49:54;;;;;;;1999.90;999.90;;;24.20;57.10;;;;;;6154460;23;20194;-72
2024/04/07 08:52:22;;;;;;;1999.90;999.90;;;24.40;56.80;;;;;;6065044;23;20254;-72
2024/04/07 08:54:47;;;;;;;1999.90;999.90;;;24.70;56.10;;;;;;6125576;23;20495;-71
2024/04/07 09:00:29;;;;;;;1999.90;999.90;;;24.90;54.90;;;;;;6126214;23;20210;-72
2024/04/07 09:02:58;;;;;;;1999.90;999.90;;;25.10;54.40;;;;;;6125215;23;20167;-72
2024/04/07 09:05:24;;;;;;;1999.90;999.90;;;25.40;54.10;;;;;;6125544;23;20210;-72
2024/04/07 09:07:49;;;;;;;1999.90;999.90;;;25.70;53.40;;;;;;6100249;23;20155;-72
2024/04/07 09:10:15;;;;;;;1999.90;999.90;;;26.00;53.00;;;;;;6125625;23;20148;-72
2024/04/07 09:12:40;;;;;;;1999.90;999.90;;;26.30;52.60;;;;;;6123995;23;20588;-72
2024/04/07 09:17:46;;;;;;;1999.90;999.90;;;26.70;51.50;;;;;;6126701;23;20191;-72
2024/04/07 09:20:19;;;;;;;1999.90;999.90;;;26.90;50.40;;;;;;6125596;23;20171;-72
2024/04/07 09:22:46;;;;;;;1999.90;999.90;;;27.10;49.90;;;;;;6125488;23;20161;-72
2024/04/07 09:25:12;;;;;;;1999.90;999.90;;;27.40;49.40;;;;;;6120392;23;20194;-72
2024/04/07 09:27:37;;;;;;;1999.90;999.90;;;27.60;49.00;;;;;;6095322;23;20518;-72
2024/04/07 09:30:07;;;;;;;1999.90;999.90;;;27.80;49.00;;;;;;6096323;23;20227;-72
2024/04/07 09:32:35;;;;;;;1999.90;999.90;;;28.10;48.80;;;;;;6096360;23;20192;-72
2024/04/07 09:35:00;;;;;;;1999.90;999.90;;;28.20;48.20;;;;;;6096011;23;20151;-72
2024/04/07 09:37:26;;;;;;;1999.90;999.90;;;28.30;47.40;;;;;;6069968;23;20240;-72
2024/04/07 09:39:51;;;;;;;1999.90;999.90;;;28.30;47.20;;;;;;6096188;23;20170;-72
2024/04/07 09:42:19;;;;;;;1999.90;999.90;;;28.50;47.30;;;;;;6095668;23;20156;-72
2024/04/07 09:44:47;;;;;;;1999.90;999.90;;;28.70;47.00;;;;;;6095954;23;20550;-72
2024/04/07 09:50:32;;;;;;;1999.90;999.90;;;29.00;44.70;;;;;;6154440;23;20295;-72
2024/04/07 09:53:07;;;;;;;1999.90;999.90;;;29.30;44.80;;;;;;6154371;23;20147;-73
2024/04/07 09:55:38;;;;;;;1999.90;999.90;;;29.70;44.40;;;;;;6154528;23;20197;-72
2024/04/07 09:58:05;;;;;;;1999.90;999.90;;;29.90;43.30;;;;;;6152666;23;20587;-73
2024/04/07 10:00:31;;;;;;;1999.90;999.90;;;29.90;43.20;;;;;;6154840;23;20581;-74
2024/04/07 10:02:58;;;;;;;1999.90;999.90;;;30.00;42.80;;;;;;6154966;23;20154;-74
2024/04/07 10:05:24;;;;;;;1999.90;999.90;;;30.20;42.50;;;;;;6154651;23;20240;-74
2024/04/07 10:07:50;;;;;;;1999.90;999.90;;;30.30;42.20;;;;;;6128101;23;20189;-74
2024/04/07 10:10:21;;;;;;;1999.90;999.90;;;30.30;42.10;;;;;;6154889;23;20174;-75
2024/04/07 10:12:47;;;;;;;1999.90;999.90;;;30.60;42.30;;;;;;6157835;23;20130;-75
2024/04/07 10:15:20;;;;;;;1999.90;999.90;;;30.70;41.90;;;;;;6132045;23;20241;-75
2024/04/07 10:17:46;;;;;;;1999.90;999.90;;;30.80;42.10;;;;;;6131311;23;20184;-75
2024/04/07 10:20:14;;;;;;;1999.90;999.90;;;31.00;41.90;;;;;;6158501;23;20158;-75
2024/04/07 10:22:43;;;;;;;1999.90;999.90;;;31.10;41.80;;;;;;6158296;23;20150;-75
2024/04/07 10:25:10;;;;;;;1999.90;999.90;;;31.20;41.10;;;;;;6158310;23;20212;-75
2024/04/07 10:27:45;;;;;;;1999.90;999.90;;;31.30;40.90;;;;;;6157670;23;20151;-75
2024/04/07 10:30:12;;;;;;;1999.90;999.90;;;31.40;40.40;;;;;;6132031;23;20165;-75
2024/04/07 10:32:39;;;;;;;1999.90;999.90;;;31.60;40.40;;;;;;6132230;23;20213;-75
2024/04/07 10:35:10;;;;;;;1999.90;999.90;;;31.80;40.60;;;;;;6132225;23;20502;-75
2024/04/07 10:37:40;;;;;;;1999.90;999.90;;;32.20;40.70;;;;;;6157555;23;20150;-75
2024/04/07 10:40:08;;;;;;;1999.90;999.90;;;32.20;40.10;;;;;;6158102;23;20158;-75
2024/04/07 10:42:34;;;;;;;1999.90;999.90;;;32.30;40.40;;;;;;6157801;23;20599;-75
2024/04/07 10:54:37;;;;;;;1999.90;999.90;;;32.20;40.10;;;;;;5926689;24;20216;-73
2024/04/07 10:57:15;;;;;;;1999.90;999.90;;;32.30;39.70;;;;;;6087407;23;20211;-74
2024/04/07 10:59:41;;;;;;;1999.90;999.90;;;32.60;40.10;;;;;;6121116;23;20174;-74
2024/04/07 11:02:08;;;;;;;1999.90;999.90;;;32.80;39.70;;;;;;6128503;23;20147;-74
2024/04/07 11:04:35;;;;;;;1999.90;999.90;;;32.80;39.20;;;;;;6126964;23;20183;-74
2024/04/07 11:07:02;;;;;;;1999.90;999.90;;;32.90;38.90;;;;;;6127576;23;20592;-73
2024/04/07 11:09:28;;;;;;;1999.90;999.90;;;33.10;39.30;;;;;;6128834;23;20151;-73
2024/04/07 11:11:55;;;;;;;1999.90;999.90;;;33.10;39.00;;;;;;6127019;23;20604;-73
2024/04/07 11:14:32;;;;;;;1999.90;999.90;;;33.20;38.90;;;;;;6128351;23;20165;-73
2024/04/07 11:17:05;;;;;;;1999.90;999.90;;;33.30;38.60;;;;;;6127898;23;20214;-74
2024/04/07 11:19:33;;;;;;;1999.90;999.90;;;33.30;38.10;;;;;;6128707;23;20136;-74
2024/04/07 11:21:59;;;;;;;1999.90;999.90;;;33.40;38.40;;;;;;6128583;23;20159;-73
2024/04/07 11:24:25;;;;;;;1999.90;999.90;;;33.40;38.40;;;;;;6126403;23;20187;-73
2024/04/07 11:26:51;;;;;;;1999.90;999.90;;;33.40;38.30;;;;;;6126130;23;20171;-73
2024/04/07 11:29:17;;;;;;;1999.90;999.90;;;33.30;38.60;;;;;;6127419;23;20152;-73
2024/04/07 11:31:49;;;;;;;1999.90;999.90;;;33.30;38.30;;;;;;6127306;23;20592;-74
2024/04/07 11:34:18;;;;;;;1999.90;999.90;;;33.30;38.50;;;;;;6126972;23;20144;-73
2024/04/07 12:39:06;;;;;;;;;;;;;;;;;;;;;
2024/04/07 12:41:35;;;;;;;1999.90;999.90;;;34.10;38.50;;;;;;5959740;24;20257;-74
2024/04/07 12:44:10;;;;;;;1999.90;999.90;;;34.40;38.70;;;;;;5997960;23;20636;-73
2024/04/07 12:46:49;;;;;;;1999.90;999.90;;;34.30;38.20;;;;;;6097567;23;20206;-74
2024/04/07 12:49:40;;;;;;;1999.90;999.90;;;34.40;38.60;;;;;;6100222;23;20151;-74
2024/04/07 12:52:35;;;;;;;1999.90;999.90;;;34.50;38.50;;;;;;6100812;23;20177;-74
2024/04/07 12:55:06;;;;;;;1999.90;999.90;;;34.70;38.60;;;;;;6126207;23;20218;-74
2024/04/07 12:58:12;;;;;;;1999.90;999.90;;;34.80;38.00;;;;;;6125599;23;20163;-73
2024/04/07 13:07:00;;;;;;;1999.90;999.90;;;34.80;37.20;;;;;;6104687;23;20249;-73
2024/04/07 13:23:42;;;;;;;1999.90;999.90;;;34.90;37.30;;;;;;5968814;23;20192;-73
2024/04/07 13:26:08;;;;;;;1999.90;999.90;;;34.90;37.60;;;;;;5992461;23;20196;-74
2024/04/07 13:28:33;;;;;;;1999.90;999.90;;;34.80;37.50;;;;;;6095973;23;20167;-74
2024/04/07 13:30:59;;;;;;;1999.90;999.90;;;34.70;37.80;;;;;;6125360;23;20224;-73
2024/04/07 13:33:25;;;;;;;1999.90;999.90;;;34.70;37.80;;;;;;6125528;23;20584;-74
2024/04/07 13:35:59;;;;;;;1999.90;999.90;;;34.60;37.60;;;;;;6112693;23;20299;-73
2024/04/07 13:38:25;;;;;;;1999.90;999.90;;;34.40;37.60;;;;;;6154929;23;20157;-73
2024/04/07 13:40:55;;;;;;;1999.90;999.90;;;34.30;38.30;;;;;;6155251;23;20162;-73
2024/04/07 13:43:21;;;;;;;1999.90;999.90;;;34.20;38.70;;;;;;6128810;23;20599;-73
2024/04/07 14:06:35;;;;;;;1999.90;999.90;;;34.50;37.40;;;;;;6001850;23;20211;-74
2024/04/07 14:09:01;;;;;;;1999.90;999.90;;;34.30;37.80;;;;;;6006365;23;20646;-73
2024/04/07 14:11:27;;;;;;;1999.90;999.90;;;33.90;38.90;;;;;;6003999;23;20166;-73
2024/04/07 14:13:52;;;;;;;1999.90;999.90;;;33.80;37.90;;;;;;6039577;23;20164;-74
2024/04/07 14:29:53;;;;;;;1999.90;999.90;;;32.40;38.80;;;;;;6150583;23;20193;-73
2024/04/07 14:32:19;;;;;;;1999.90;999.90;;;31.90;39.00;;;;;;6154605;23;20142;-73
2024/04/07 14:34:45;;;;;;;1999.90;999.90;;;31.60;39.40;;;;;;6154600;23;20165;-73
2024/04/07 14:37:10;;;;;;;1999.90;999.90;;;31.20;39.90;;;;;;6153913;23;20234;-73
2024/04/07 14:39:36;;;;;;;1999.90;999.90;;;31.00;40.80;;;;;;6154497;23;20522;-73
2024/04/07 14:42:01;;;;;;;1999.90;999.90;;;30.80;40.50;;;;;;6154567;23;20154;-73
2024/04/07 14:44:27;;;;;;;1999.90;999.90;;;30.60;40.60;;;;;;6128139;23;20217;-73
2024/04/07 14:46:53;;;;;;;1999.90;999.90;;;30.50;41.00;;;;;;6153716;23;20217;-73
2024/04/07 14:49:20;;;;;;;1999.90;999.90;;;30.40;41.30;;;;;;6154260;23;20205;-73
2024/04/07 14:51:45;;;;;;;1999.90;999.90;;;30.30;41.60;;;;;;6154494;23;20151;-73
2024/04/07 14:54:12;;;;;;;1999.90;999.90;;;30.20;41.70;;;;;;6154516;23;20646;-73
2024/04/07 14:56:37;;;;;;;1999.90;999.90;;;30.10;41.80;;;;;;6153360;23;20174;-73
2024/04/07 14:59:03;;;;;;;1999.90;999.90;;;30.10;42.30;;;;;;6155731;23;20177;-73
2024/04/07 15:01:29;;;;;;;1999.90;999.90;;;30.10;42.80;;;;;;6156259;23;20151;-73